DLH3321 SBGR-SBCF
Flight info
| Callsign | DLH3321 |
|---|---|
| Flight time | 0h 45m |
| Altitude | 33000 |
| Route | NUXEL UZ23 KIBAP |
| Aircraft | A359/H-SDE2E3GHIJ3J4J5LM1ORWXY/LB1D1 |
Departure
| Time | 2026-05-04 03:17 |
|---|---|
| Airport | São Paulo/Guarulhos–Governor André Franco Montoro International Airport (SBGR) |
Arrival
| Time | 2026-05-04 04:02 |
|---|---|
| Airport | Tancredo Neves International Airport (SBCF) |
| Time | Latitude | Longitude | Altitude | Speed | Heading |
|---|---|---|---|---|---|
| 2026-05-04 02:54 | -23.42612 | -46.47083 | 2478 ft | 0 kts | 74° |
| 2026-05-04 03:06 | -23.42615 | -46.47094 | 2505 ft | 4 kts | 75° |
| 2026-05-04 03:06 | -23.42622 | -46.47122 | 2501 ft | 4 kts | 79° |
| 2026-05-04 03:06 | -23.42624 | -46.47151 | 2478 ft | 4 kts | 102° |
| 2026-05-04 03:06 | -23.42615 | -46.47170 | 2478 ft | 2 kts | 162° |
| 2026-05-04 03:07 | -23.42614 | -46.47170 | 2478 ft | 0 kts | 162° |
| 2026-05-04 03:12 | -23.42670 | -46.47153 | 2478 ft | 13 kts | 170° |
| 2026-05-04 03:13 | -23.42774 | -46.47140 | 2478 ft | 17 kts | 166° |
| 2026-05-04 03:13 | -23.42872 | -46.47203 | 2478 ft | 20 kts | 252° |
| 2026-05-04 03:13 | -23.42907 | -46.47364 | 2478 ft | 24 kts | 255° |
| 2026-05-04 03:13 | -23.42959 | -46.47553 | 2479 ft | 28 kts | 254° |
| 2026-05-04 03:14 | -23.43003 | -46.47714 | 2479 ft | 20 kts | 253° |
| 2026-05-04 03:14 | -23.43046 | -46.47875 | 2479 ft | 24 kts | 253° |
| 2026-05-04 03:14 | -23.43098 | -46.48065 | 2480 ft | 28 kts | 253° |
| 2026-05-04 03:14 | -23.43146 | -46.48244 | 2480 ft | 27 kts | 253° |
| 2026-05-04 03:15 | -23.43233 | -46.48379 | 2481 ft | 19 kts | 180° |
| 2026-05-04 03:15 | -23.43284 | -46.48368 | 2481 ft | 0 kts | 163° |
| 2026-05-04 03:16 | -23.43302 | -46.48362 | 2481 ft | 11 kts | 163° |
| 2026-05-04 03:16 | -23.43397 | -46.48310 | 2480 ft | 17 kts | 123° |
| 2026-05-04 03:16 | -23.43391 | -46.48196 | 2480 ft | 0 kts | 73° |
| 2026-05-04 03:17 | -23.43317 | -46.47919 | 2480 ft | 74 kts | 73° |
| 2026-05-04 03:17 | -23.43112 | -46.47159 | 2478 ft | 134 kts | 73° |
| 2026-05-04 03:17 | -23.42801 | -46.46012 | 2600 ft | 175 kts | 74° |
| 2026-05-04 03:17 | -23.42430 | -46.44680 | 3081 ft | 192 kts | 73° |
| 2026-05-04 03:18 | -23.42015 | -46.43229 | 3668 ft | 211 kts | 75° |
| 2026-05-04 03:18 | -23.41544 | -46.41619 | 4081 ft | 235 kts | 73° |
| 2026-05-04 03:18 | -23.41030 | -46.39874 | 4711 ft | 245 kts | 73° |
| 2026-05-04 03:18 | -23.40516 | -46.38120 | 5513 ft | 250 kts | 73° |
| 2026-05-04 03:19 | -23.39929 | -46.36295 | 6131 ft | 261 kts | 65° |
| 2026-05-04 03:19 | -23.39028 | -46.34540 | 6833 ft | 269 kts | 58° |
| 2026-05-04 03:19 | -23.38014 | -46.32803 | 7608 ft | 274 kts | 56° |
| 2026-05-04 03:19 | -23.36975 | -46.31035 | 8393 ft | 280 kts | 56° |
| 2026-05-04 03:20 | -23.35916 | -46.29225 | 9190 ft | 287 kts | 56° |
| 2026-05-04 03:20 | -23.34837 | -46.27372 | 10006 ft | 293 kts | 56° |
| 2026-05-04 03:20 | -23.33736 | -46.25479 | 10623 ft | 304 kts | 56° |
| 2026-05-04 03:20 | -23.32567 | -46.23469 | 10954 ft | 325 kts | 56° |
| 2026-05-04 03:21 | -23.31339 | -46.21357 | 11274 ft | 344 kts | 56° |
| 2026-05-04 03:21 | -23.30026 | -46.19097 | 11585 ft | 362 kts | 56° |
| 2026-05-04 03:21 | -23.28658 | -46.16739 | 12029 ft | 374 kts | 56° |
| 2026-05-04 03:21 | -23.27255 | -46.14322 | 12541 ft | 382 kts | 56° |
| 2026-05-04 03:22 | -23.25822 | -46.11853 | 13121 ft | 389 kts | 56° |
| 2026-05-04 03:22 | -23.24859 | -46.10196 | 13489 ft | 393 kts | 56° |
| 2026-05-04 03:22 | -23.22880 | -46.06820 | 14193 ft | 400 kts | 54° |
| 2026-05-04 03:22 | -23.21050 | -46.04543 | 14672 ft | 400 kts | 37° |
| 2026-05-04 03:23 | -23.19525 | -46.03429 | 15005 ft | 399 kts | 24° |
| 2026-05-04 03:23 | -23.16968 | -46.02278 | 15534 ft | 399 kts | 16° |
| 2026-05-04 03:23 | -23.13475 | -46.00983 | 16234 ft | 402 kts | 13° |
| 2026-05-04 03:23 | -23.10744 | -46.00389 | 16793 ft | 400 kts | 4° |
| 2026-05-04 03:24 | -23.08875 | -46.00145 | 17164 ft | 401 kts | 2° |
| 2026-05-04 03:24 | -23.05176 | -45.99715 | 17886 ft | 406 kts | 2° |
| 2026-05-04 03:24 | -23.03314 | -45.99497 | 18258 ft | 408 kts | 2° |
| 2026-05-04 03:24 | -23.00480 | -45.99162 | 18746 ft | 412 kts | 2° |
| 2026-05-04 03:25 | -22.97617 | -45.98819 | 19205 ft | 415 kts | 1° |
| 2026-05-04 03:25 | -22.94732 | -45.98471 | 19639 ft | 420 kts | 1° |
| 2026-05-04 03:25 | -22.91816 | -45.98120 | 20103 ft | 423 kts | 1° |
| 2026-05-04 03:25 | -22.87927 | -45.97521 | 20746 ft | 431 kts | 6° |
| 2026-05-04 03:26 | -22.85937 | -45.97048 | 21038 ft | 435 kts | 8° |
| 2026-05-04 03:26 | -22.82990 | -45.96291 | 21567 ft | 437 kts | 8° |
| 2026-05-04 03:26 | -22.80061 | -45.95528 | 22032 ft | 441 kts | 8° |
| 2026-05-04 03:26 | -22.77064 | -45.94749 | 22509 ft | 444 kts | 8° |
| 2026-05-04 03:27 | -22.74051 | -45.93968 | 22979 ft | 447 kts | 8° |
| 2026-05-04 03:27 | -22.71010 | -45.93180 | 23479 ft | 451 kts | 8° |
| 2026-05-04 03:27 | -22.67945 | -45.92388 | 23939 ft | 455 kts | 7° |
| 2026-05-04 03:27 | -22.63848 | -45.91331 | 24489 ft | 459 kts | 7° |
| 2026-05-04 03:28 | -22.61745 | -45.90789 | 24795 ft | 461 kts | 7° |
| 2026-05-04 03:28 | -22.58623 | -45.89988 | 25323 ft | 461 kts | 7° |
| 2026-05-04 03:28 | -22.55501 | -45.89170 | 25822 ft | 463 kts | 8° |
| 2026-05-04 03:28 | -22.52407 | -45.88361 | 26264 ft | 465 kts | 7° |
| 2026-05-04 03:29 | -22.49240 | -45.87557 | 26697 ft | 469 kts | 6° |
| 2026-05-04 03:29 | -22.46051 | -45.86745 | 27106 ft | 474 kts | 6° |
| 2026-05-04 03:29 | -22.42830 | -45.85921 | 27594 ft | 477 kts | 6° |
| 2026-05-04 03:29 | -22.39592 | -45.85091 | 28089 ft | 480 kts | 6° |
| 2026-05-04 03:30 | -22.36335 | -45.84257 | 28543 ft | 483 kts | 6° |
| 2026-05-04 03:30 | -22.33050 | -45.83407 | 28935 ft | 488 kts | 7° |
| 2026-05-04 03:30 | -22.29784 | -45.82300 | 29363 ft | 499 kts | 15° |
| 2026-05-04 03:30 | -22.26680 | -45.80617 | 29757 ft | 513 kts | 26° |
| 2026-05-04 03:31 | -22.23742 | -45.78379 | 30185 ft | 521 kts | 31° |
| 2026-05-04 03:31 | -22.20864 | -45.75965 | 30521 ft | 526 kts | 33° |
| 2026-05-04 03:31 | -22.18009 | -45.73474 | 30885 ft | 529 kts | 33° |
| 2026-05-04 03:31 | -22.15156 | -45.70954 | 31248 ft | 532 kts | 33° |
| 2026-05-04 03:32 | -22.12283 | -45.68420 | 31548 ft | 534 kts | 33° |
| 2026-05-04 03:32 | -22.09395 | -45.65891 | 31877 ft | 536 kts | 33° |
| 2026-05-04 03:32 | -22.06486 | -45.63361 | 32175 ft | 538 kts | 33° |
| 2026-05-04 03:32 | -22.03563 | -45.60832 | 32487 ft | 540 kts | 33° |
| 2026-05-04 03:33 | -22.00665 | -45.58333 | 32775 ft | 542 kts | 33° |
| 2026-05-04 03:33 | -21.97715 | -45.55794 | 33056 ft | 544 kts | 33° |
| 2026-05-04 03:33 | -21.94757 | -45.53249 | 33191 ft | 543 kts | 33° |
| 2026-05-04 03:34 | -21.88893 | -45.48199 | 33210 ft | 538 kts | 33° |
| 2026-05-04 03:34 | -21.83036 | -45.43174 | 33208 ft | 538 kts | 33° |
| 2026-05-04 03:35 | -21.77188 | -45.38161 | 33208 ft | 538 kts | 33° |
| 2026-05-04 03:35 | -21.71368 | -45.33175 | 33189 ft | 538 kts | 33° |
| 2026-05-04 03:36 | -21.65513 | -45.28166 | 33209 ft | 538 kts | 33° |
| 2026-05-04 03:36 | -21.59662 | -45.23163 | 33211 ft | 538 kts | 33° |
| 2026-05-04 03:37 | -21.53808 | -45.18163 | 33207 ft | 538 kts | 33° |
| 2026-05-04 03:37 | -21.47995 | -45.13204 | 33208 ft | 537 kts | 33° |
| 2026-05-04 03:38 | -21.42144 | -45.08215 | 33206 ft | 537 kts | 33° |
| 2026-05-04 03:38 | -21.36287 | -45.03231 | 33208 ft | 537 kts | 33° |
| 2026-05-04 03:39 | -21.30441 | -44.98257 | 33200 ft | 537 kts | 33° |
| 2026-05-04 03:39 | -21.24606 | -44.93297 | 33198 ft | 537 kts | 33° |
| 2026-05-04 03:40 | -21.18779 | -44.88353 | 33201 ft | 537 kts | 33° |
| 2026-05-04 03:40 | -21.12924 | -44.83389 | 33199 ft | 536 kts | 33° |
| 2026-05-04 03:41 | -21.07074 | -44.78433 | 33201 ft | 536 kts | 33° |
| 2026-05-04 03:41 | -21.01155 | -44.73623 | 33211 ft | 533 kts | 30° |
| 2026-05-04 03:42 | -20.95132 | -44.69099 | 33139 ft | 531 kts | 30° |
| 2026-05-04 03:42 | -20.92136 | -44.66831 | 32632 ft | 525 kts | 30° |
| 2026-05-04 03:42 | -20.89156 | -44.64569 | 31762 ft | 527 kts | 30° |
| 2026-05-04 03:42 | -20.86150 | -44.62285 | 30812 ft | 532 kts | 30° |
| 2026-05-04 03:43 | -20.83121 | -44.59982 | 29791 ft | 537 kts | 30° |
| 2026-05-04 03:43 | -20.80002 | -44.57816 | 28952 ft | 529 kts | 23° |
| 2026-05-04 03:43 | -20.76649 | -44.56383 | 28316 ft | 513 kts | 11° |
| 2026-05-04 03:43 | -20.73228 | -44.55399 | 27670 ft | 506 kts | 8° |
| 2026-05-04 03:44 | -20.69876 | -44.54502 | 27021 ft | 501 kts | 8° |
| 2026-05-04 03:44 | -20.66503 | -44.53601 | 26388 ft | 497 kts | 8° |
| 2026-05-04 03:44 | -20.63160 | -44.52704 | 25747 ft | 494 kts | 9° |
| 2026-05-04 03:44 | -20.59846 | -44.51810 | 25111 ft | 489 kts | 9° |
| 2026-05-04 03:45 | -20.56553 | -44.50921 | 24481 ft | 485 kts | 10° |
| 2026-05-04 03:45 | -20.53299 | -44.50040 | 23851 ft | 481 kts | 10° |
| 2026-05-04 03:45 | -20.50065 | -44.49169 | 23151 ft | 477 kts | 10° |
| 2026-05-04 03:45 | -20.46873 | -44.48304 | 22516 ft | 470 kts | 11° |
| 2026-05-04 03:46 | -20.43722 | -44.47450 | 21893 ft | 464 kts | 11° |
| 2026-05-04 03:46 | -20.40614 | -44.46608 | 21288 ft | 458 kts | 11° |
| 2026-05-04 03:46 | -20.37580 | -44.45787 | 20684 ft | 453 kts | 11° |
| 2026-05-04 03:46 | -20.34539 | -44.44967 | 20026 ft | 450 kts | 11° |
| 2026-05-04 03:47 | -20.31518 | -44.44146 | 19374 ft | 446 kts | 12° |
| 2026-05-04 03:47 | -20.28527 | -44.43330 | 18741 ft | 442 kts | 12° |
| 2026-05-04 03:47 | -20.25551 | -44.42519 | 18027 ft | 439 kts | 12° |
| 2026-05-04 03:47 | -20.22607 | -44.41718 | 17366 ft | 434 kts | 12° |
| 2026-05-04 03:48 | -20.19703 | -44.40928 | 16721 ft | 429 kts | 12° |
| 2026-05-04 03:48 | -20.16830 | -44.40147 | 16092 ft | 423 kts | 12° |
| 2026-05-04 03:48 | -20.13993 | -44.39378 | 15466 ft | 418 kts | 12° |
| 2026-05-04 03:48 | -20.11227 | -44.38627 | 14870 ft | 414 kts | 12° |
| 2026-05-04 03:49 | -20.08454 | -44.37874 | 14263 ft | 409 kts | 12° |
| 2026-05-04 03:49 | -20.05713 | -44.37130 | 13619 ft | 404 kts | 12° |
| 2026-05-04 03:49 | -20.03008 | -44.36401 | 12979 ft | 398 kts | 13° |
| 2026-05-04 03:49 | -20.00343 | -44.35680 | 12381 ft | 392 kts | 13° |
| 2026-05-04 03:50 | -19.97721 | -44.34971 | 11799 ft | 386 kts | 13° |
| 2026-05-04 03:50 | -19.95153 | -44.34277 | 11398 ft | 369 kts | 14° |
| 2026-05-04 03:50 | -19.92778 | -44.33633 | 11264 ft | 335 kts | 14° |
| 2026-05-04 03:50 | -19.90649 | -44.33058 | 11128 ft | 306 kts | 14° |
| 2026-05-04 03:51 | -19.88665 | -44.32521 | 11001 ft | 285 kts | 14° |
| 2026-05-04 03:51 | -19.86773 | -44.32014 | 10880 ft | 276 kts | 14° |
| 2026-05-04 03:51 | -19.84944 | -44.31520 | 10756 ft | 268 kts | 15° |
| 2026-05-04 03:51 | -19.83129 | -44.31028 | 10640 ft | 270 kts | 15° |
| 2026-05-04 03:52 | -19.81306 | -44.30535 | 10524 ft | 270 kts | 15° |
| 2026-05-04 03:52 | -19.79484 | -44.30043 | 10327 ft | 270 kts | 15° |
| 2026-05-04 03:52 | -19.77669 | -44.29551 | 10067 ft | 269 kts | 15° |
| 2026-05-04 03:52 | -19.75872 | -44.28832 | 9910 ft | 283 kts | 28° |
| 2026-05-04 03:53 | -19.74153 | -44.27811 | 9758 ft | 281 kts | 31° |
| 2026-05-04 03:53 | -19.72477 | -44.26752 | 9308 ft | 280 kts | 31° |
| 2026-05-04 03:53 | -19.70828 | -44.25705 | 8945 ft | 280 kts | 31° |
| 2026-05-04 03:53 | -19.69155 | -44.24649 | 8701 ft | 279 kts | 32° |
| 2026-05-04 03:54 | -19.67502 | -44.23609 | 8558 ft | 271 kts | 32° |
| 2026-05-04 03:54 | -19.65912 | -44.22611 | 8363 ft | 259 kts | 32° |
| 2026-05-04 03:54 | -19.64409 | -44.21687 | 8181 ft | 241 kts | 29° |
| 2026-05-04 03:54 | -19.62966 | -44.20910 | 7963 ft | 226 kts | 27° |
| 2026-05-04 03:55 | -19.61564 | -44.20178 | 7813 ft | 224 kts | 27° |
| 2026-05-04 03:55 | -19.60183 | -44.19451 | 7614 ft | 221 kts | 28° |
| 2026-05-04 03:55 | -19.58827 | -44.18731 | 7389 ft | 221 kts | 28° |
| 2026-05-04 03:55 | -19.57456 | -44.18000 | 7199 ft | 219 kts | 28° |
| 2026-05-04 03:56 | -19.56198 | -44.17133 | 6973 ft | 217 kts | 42° |
| 2026-05-04 03:56 | -19.55149 | -44.15990 | 6837 ft | 214 kts | 48° |
| 2026-05-04 03:56 | -19.54178 | -44.14817 | 6491 ft | 212 kts | 49° |
| 2026-05-04 03:56 | -19.53205 | -44.13635 | 6116 ft | 213 kts | 49° |
| 2026-05-04 03:57 | -19.52231 | -44.12455 | 5793 ft | 213 kts | 50° |
| 2026-05-04 03:57 | -19.51314 | -44.11242 | 5473 ft | 210 kts | 58° |
| 2026-05-04 03:57 | -19.50863 | -44.09803 | 5080 ft | 208 kts | 86° |
| 2026-05-04 03:57 | -19.51221 | -44.08359 | 4668 ft | 203 kts | 115° |
| 2026-05-04 03:58 | -19.53058 | -44.06497 | 4309 ft | 159 kts | 137° |
| 2026-05-04 03:58 | -19.53811 | -44.05761 | 4367 ft | 139 kts | 133° |
| 2026-05-04 03:58 | -19.54523 | -44.05090 | 4394 ft | 137 kts | 134° |
| 2026-05-04 03:59 | -19.55232 | -44.04428 | 4401 ft | 136 kts | 134° |
| 2026-05-04 03:59 | -19.55942 | -44.03765 | 4375 ft | 136 kts | 134° |
| 2026-05-04 03:59 | -19.56657 | -44.03096 | 4246 ft | 137 kts | 134° |
| 2026-05-04 03:59 | -19.57359 | -44.02443 | 4061 ft | 135 kts | 136° |
| 2026-05-04 04:00 | -19.58052 | -44.01802 | 3886 ft | 133 kts | 136° |
| 2026-05-04 04:00 | -19.58754 | -44.01152 | 3717 ft | 134 kts | 136° |
| 2026-05-04 04:00 | -19.59458 | -44.00497 | 3538 ft | 135 kts | 137° |
| 2026-05-04 04:00 | -19.60171 | -43.99837 | 3352 ft | 137 kts | 137° |
| 2026-05-04 04:01 | -19.60893 | -43.99167 | 3148 ft | 137 kts | 136° |
| 2026-05-04 04:01 | -19.61616 | -43.98496 | 2945 ft | 139 kts | 137° |
| 2026-05-04 04:01 | -19.62337 | -43.97821 | 2843 ft | 138 kts | 138° |
| 2026-05-04 04:01 | -19.63020 | -43.97196 | 2823 ft | 116 kts | 139° |
| 2026-05-04 04:02 | -19.63551 | -43.96706 | 2821 ft | 88 kts | 139° |
| 2026-05-04 04:02 | -19.63955 | -43.96333 | 2822 ft | 69 kts | 139° |
| 2026-05-04 04:02 | -19.64259 | -43.96053 | 2822 ft | 51 kts | 139° |
| 2026-05-04 04:02 | -19.64329 | -43.95880 | 2820 ft | 19 kts | 56° |
| 2026-05-04 04:03 | -19.64220 | -43.95863 | 2819 ft | 19 kts | 324° |
| 2026-05-04 04:03 | -19.64098 | -43.95970 | 2822 ft | 26 kts | 320° |
| 2026-05-04 04:03 | -19.63979 | -43.96081 | 2822 ft | 22 kts | 319° |
| 2026-05-04 04:03 | -19.63849 | -43.96202 | 2823 ft | 29 kts | 319° |
| 2026-05-04 04:04 | -19.63713 | -43.96329 | 2822 ft | 27 kts | 318° |
| 2026-05-04 04:04 | -19.63590 | -43.96443 | 2822 ft | 17 kts | 319° |
| 2026-05-04 04:04 | -19.63478 | -43.96545 | 2819 ft | 25 kts | 318° |
| 2026-05-04 04:04 | -19.63350 | -43.96663 | 2821 ft | 16 kts | 317° |
| 2026-05-04 04:05 | -19.63243 | -43.96684 | 2821 ft | 16 kts | 38° |
| 2026-05-04 04:05 | -19.63193 | -43.96579 | 2822 ft | 15 kts | 54° |
| 2026-05-04 04:05 | -19.63151 | -43.96525 | 2822 ft | 0 kts | 49° |
| 2026-05-04 04:05 | -19.63143 | -43.96515 | 2820 ft | 0 kts | 49° |